EWG97UB EDDS-LROP
Flight info
| Callsign | EWG97UB |
|---|---|
| Flight time | 1h 56m |
| Altitude | 37000 |
| Route | ABTAL4H ABTAL L173 RIXED Y161 RIDAR Z98 WLD T702 BADIT DCT NURMI DCT SASAL DCT MAVIR DCT MOPUG DCT AGNEP DCT TOSVI |
| Aircraft | A320/M-SDE3FGHIRWY/LB1 |
Departure
| Time | 2026-05-05 08:53 |
|---|---|
| Airport | Stuttgart Airport (EDDS) |
Arrival
| Time | 2026-05-05 10:49 |
|---|---|
| Airport | Bucharest Henri Coandă International Airport (LROP) |
| Time | Latitude | Longitude | Altitude | Speed | Heading |
|---|---|---|---|---|---|
| 2026-05-05 08:24 | 48.68884 | 9.19359 | 1316 ft | 0 kts | 344° |
| 2026-05-05 08:38 | 48.68868 | 9.19366 | 1315 ft | 4 kts | 344° |
| 2026-05-05 08:39 | 48.68843 | 9.19377 | 1314 ft | 3 kts | 344° |
| 2026-05-05 08:39 | 48.68821 | 9.19383 | 1314 ft | 4 kts | 17° |
| 2026-05-05 08:39 | 48.68804 | 9.19361 | 1314 ft | 4 kts | 68° |
| 2026-05-05 08:39 | 48.68799 | 9.19341 | 1314 ft | 0 kts | 74° |
| 2026-05-05 08:48 | 48.68809 | 9.19392 | 1313 ft | 8 kts | 74° |
| 2026-05-05 08:48 | 48.68824 | 9.19473 | 1312 ft | 8 kts | 74° |
| 2026-05-05 08:48 | 48.68840 | 9.19556 | 1310 ft | 8 kts | 74° |
| 2026-05-05 08:48 | 48.68856 | 9.19642 | 1309 ft | 9 kts | 74° |
| 2026-05-05 08:49 | 48.68872 | 9.19732 | 1307 ft | 9 kts | 74° |
| 2026-05-05 08:49 | 48.68891 | 9.19835 | 1304 ft | 11 kts | 75° |
| 2026-05-05 08:49 | 48.68845 | 9.19893 | 1299 ft | 11 kts | 163° |
| 2026-05-05 08:49 | 48.68787 | 9.19961 | 1294 ft | 10 kts | 133° |
| 2026-05-05 08:50 | 48.68748 | 9.20025 | 1290 ft | 6 kts | 133° |
| 2026-05-05 08:50 | 48.68726 | 9.20066 | 1288 ft | 6 kts | 121° |
| 2026-05-05 08:50 | 48.68710 | 9.20143 | 1287 ft | 6 kts | 102° |
| 2026-05-05 08:50 | 48.68709 | 9.20145 | 1287 ft | 0 kts | 102° |
| 2026-05-05 08:51 | 48.68709 | 9.20149 | 1285 ft | 2 kts | 102° |
| 2026-05-05 08:51 | 48.68695 | 9.20244 | 1280 ft | 17 kts | 102° |
| 2026-05-05 08:51 | 48.68671 | 9.20465 | 1275 ft | 23 kts | 96° |
| 2026-05-05 08:52 | 48.68712 | 9.20733 | 1270 ft | 38 kts | 74° |
| 2026-05-05 08:52 | 48.68854 | 9.21486 | 1258 ft | 108 kts | 74° |
| 2026-05-05 08:52 | 48.69117 | 9.22872 | 1222 ft | 164 kts | 74° |
| 2026-05-05 08:52 | 48.69447 | 9.24614 | 1634 ft | 174 kts | 74° |
| 2026-05-05 08:53 | 48.69794 | 9.26409 | 2304 ft | 180 kts | 72° |
| 2026-05-05 08:53 | 48.70175 | 9.28286 | 2720 ft | 198 kts | 71° |
| 2026-05-05 08:53 | 48.70611 | 9.30370 | 2970 ft | 223 kts | 72° |
| 2026-05-05 08:53 | 48.71075 | 9.32748 | 3388 ft | 248 kts | 73° |
| 2026-05-05 08:54 | 48.71561 | 9.35344 | 4001 ft | 261 kts | 75° |
| 2026-05-05 08:54 | 48.72045 | 9.38021 | 4853 ft | 266 kts | 76° |
| 2026-05-05 08:54 | 48.72538 | 9.40748 | 5698 ft | 270 kts | 76° |
| 2026-05-05 08:54 | 48.73043 | 9.43516 | 6514 ft | 275 kts | 76° |
| 2026-05-05 08:55 | 48.73563 | 9.46331 | 7339 ft | 279 kts | 76° |
| 2026-05-05 08:55 | 48.74094 | 9.49183 | 8181 ft | 283 kts | 76° |
| 2026-05-05 08:55 | 48.74633 | 9.52068 | 9011 ft | 287 kts | 75° |
| 2026-05-05 08:55 | 48.75176 | 9.54957 | 9807 ft | 291 kts | 75° |
| 2026-05-05 08:56 | 48.75737 | 9.57956 | 10308 ft | 306 kts | 76° |
| 2026-05-05 08:56 | 48.76336 | 9.61174 | 10568 ft | 328 kts | 76° |
| 2026-05-05 08:56 | 48.76965 | 9.64561 | 11120 ft | 338 kts | 76° |
| 2026-05-05 08:56 | 48.77608 | 9.68023 | 11775 ft | 344 kts | 76° |
| 2026-05-05 08:57 | 48.78264 | 9.71545 | 12482 ft | 349 kts | 76° |
| 2026-05-05 08:57 | 48.78928 | 9.75111 | 13181 ft | 354 kts | 76° |
| 2026-05-05 08:57 | 48.79597 | 9.78718 | 13870 ft | 358 kts | 77° |
| 2026-05-05 08:57 | 48.80261 | 9.82323 | 14492 ft | 361 kts | 77° |
| 2026-05-05 08:58 | 48.80941 | 9.86015 | 15121 ft | 365 kts | 77° |
| 2026-05-05 08:58 | 48.81629 | 9.89741 | 15725 ft | 369 kts | 77° |
| 2026-05-05 08:58 | 48.82323 | 9.93508 | 16335 ft | 372 kts | 77° |
| 2026-05-05 08:58 | 48.83021 | 9.97308 | 16949 ft | 376 kts | 77° |
| 2026-05-05 08:59 | 48.83722 | 10.01154 | 17544 ft | 380 kts | 77° |
| 2026-05-05 08:59 | 48.84427 | 10.05033 | 18145 ft | 383 kts | 77° |
| 2026-05-05 08:59 | 48.85050 | 10.08922 | 18654 ft | 385 kts | 84° |
| 2026-05-05 08:59 | 48.85233 | 10.12963 | 19159 ft | 384 kts | 95° |
| 2026-05-05 09:00 | 48.84969 | 10.16996 | 19683 ft | 385 kts | 100° |
| 2026-05-05 09:00 | 48.84636 | 10.21044 | 20226 ft | 388 kts | 100° |
| 2026-05-05 09:00 | 48.84303 | 10.25123 | 20743 ft | 391 kts | 100° |
| 2026-05-05 09:00 | 48.83968 | 10.29246 | 21256 ft | 395 kts | 100° |
| 2026-05-05 09:01 | 48.83633 | 10.33396 | 21775 ft | 398 kts | 99° |
| 2026-05-05 09:01 | 48.83172 | 10.37549 | 22293 ft | 399 kts | 108° |
| 2026-05-05 09:01 | 48.82226 | 10.41498 | 22794 ft | 399 kts | 119° |
| 2026-05-05 09:01 | 48.80821 | 10.45048 | 23271 ft | 398 kts | 129° |
| 2026-05-05 09:02 | 48.78997 | 10.48207 | 23692 ft | 399 kts | 136° |
| 2026-05-05 09:02 | 48.77071 | 10.51257 | 24107 ft | 402 kts | 136° |
| 2026-05-05 09:02 | 48.75139 | 10.54330 | 24500 ft | 404 kts | 136° |
| 2026-05-05 09:02 | 48.73198 | 10.57435 | 24898 ft | 407 kts | 136° |
| 2026-05-05 09:03 | 48.71250 | 10.60551 | 25287 ft | 409 kts | 136° |
| 2026-05-05 09:03 | 48.69286 | 10.63684 | 25668 ft | 411 kts | 136° |
| 2026-05-05 09:03 | 48.67389 | 10.66949 | 26035 ft | 416 kts | 129° |
| 2026-05-05 09:03 | 48.65852 | 10.70688 | 26397 ft | 422 kts | 119° |
| 2026-05-05 09:04 | 48.64776 | 10.74779 | 26743 ft | 428 kts | 109° |
| 2026-05-05 09:04 | 48.64004 | 10.79146 | 27078 ft | 431 kts | 108° |
| 2026-05-05 09:04 | 48.63231 | 10.83538 | 27421 ft | 434 kts | 108° |
| 2026-05-05 09:04 | 48.62444 | 10.87943 | 27760 ft | 436 kts | 108° |
| 2026-05-05 09:05 | 48.61647 | 10.92384 | 28076 ft | 439 kts | 108° |
| 2026-05-05 09:05 | 48.60843 | 10.96845 | 28393 ft | 441 kts | 108° |
| 2026-05-05 09:05 | 48.60034 | 11.01334 | 28704 ft | 444 kts | 108° |
| 2026-05-05 09:05 | 48.59219 | 11.05848 | 29017 ft | 446 kts | 108° |
| 2026-05-05 09:06 | 48.58400 | 11.10378 | 29324 ft | 449 kts | 108° |
| 2026-05-05 09:06 | 48.57553 | 11.14853 | 29619 ft | 450 kts | 110° |
| 2026-05-05 09:06 | 48.56585 | 11.19360 | 29911 ft | 452 kts | 112° |
| 2026-05-05 09:06 | 48.55536 | 11.23832 | 30154 ft | 453 kts | 113° |
| 2026-05-05 09:07 | 48.54437 | 11.28297 | 30388 ft | 455 kts | 114° |
| 2026-05-05 09:07 | 48.53319 | 11.32771 | 30611 ft | 457 kts | 114° |
| 2026-05-05 09:07 | 48.52205 | 11.37266 | 30845 ft | 459 kts | 113° |
| 2026-05-05 09:07 | 48.51104 | 11.41802 | 31040 ft | 461 kts | 113° |
| 2026-05-05 09:08 | 48.50017 | 11.46357 | 31288 ft | 462 kts | 113° |
| 2026-05-05 09:08 | 48.48944 | 11.50916 | 31585 ft | 462 kts | 112° |
| 2026-05-05 09:08 | 48.47871 | 11.55483 | 31900 ft | 462 kts | 113° |
| 2026-05-05 09:08 | 48.46808 | 11.59978 | 32215 ft | 461 kts | 113° |
| 2026-05-05 09:09 | 48.45728 | 11.64518 | 32536 ft | 460 kts | 113° |
| 2026-05-05 09:09 | 48.44642 | 11.69049 | 32855 ft | 460 kts | 113° |
| 2026-05-05 09:09 | 48.43555 | 11.73571 | 33154 ft | 459 kts | 113° |
| 2026-05-05 09:09 | 48.42466 | 11.78084 | 33468 ft | 458 kts | 113° |
| 2026-05-05 09:10 | 48.41377 | 11.82585 | 33785 ft | 458 kts | 113° |
| 2026-05-05 09:10 | 48.40285 | 11.87086 | 34070 ft | 457 kts | 113° |
| 2026-05-05 09:10 | 48.39210 | 11.91512 | 34326 ft | 457 kts | 113° |
| 2026-05-05 09:10 | 48.38118 | 11.95992 | 34574 ft | 456 kts | 113° |
| 2026-05-05 09:11 | 48.37025 | 12.00473 | 34811 ft | 456 kts | 113° |
| 2026-05-05 09:11 | 48.35931 | 12.04948 | 35050 ft | 456 kts | 113° |
| 2026-05-05 09:11 | 48.34840 | 12.09418 | 35285 ft | 455 kts | 113° |
| 2026-05-05 09:11 | 48.33749 | 12.13886 | 35494 ft | 455 kts | 113° |
| 2026-05-05 09:12 | 48.32658 | 12.18347 | 35724 ft | 455 kts | 113° |
| 2026-05-05 09:12 | 48.31933 | 12.21299 | 35866 ft | 454 kts | 113° |
| 2026-05-05 09:12 | 48.30836 | 12.25747 | 36074 ft | 454 kts | 113° |
| 2026-05-05 09:12 | 48.29381 | 12.31632 | 36325 ft | 454 kts | 113° |
| 2026-05-05 09:13 | 48.28284 | 12.36074 | 36520 ft | 454 kts | 113° |
| 2026-05-05 09:13 | 48.27184 | 12.40522 | 36712 ft | 454 kts | 114° |
| 2026-05-05 09:13 | 48.26085 | 12.44956 | 36831 ft | 453 kts | 114° |
| 2026-05-05 09:14 | 48.24256 | 12.52304 | 36845 ft | 451 kts | 114° |
| 2026-05-05 09:14 | 48.22050 | 12.61108 | 36847 ft | 451 kts | 114° |
| 2026-05-05 09:15 | 48.19483 | 12.71335 | 36850 ft | 451 kts | 114° |
| 2026-05-05 09:15 | 48.17626 | 12.78699 | 36850 ft | 451 kts | 114° |
| 2026-05-05 09:16 | 48.15450 | 12.87438 | 36850 ft | 451 kts | 112° |
| 2026-05-05 09:16 | 48.13443 | 12.96347 | 36841 ft | 452 kts | 111° |
| 2026-05-05 09:17 | 48.11497 | 13.05285 | 36846 ft | 452 kts | 111° |
| 2026-05-05 09:17 | 48.09183 | 13.15640 | 36851 ft | 451 kts | 112° |
| 2026-05-05 09:18 | 48.07482 | 13.23082 | 36846 ft | 451 kts | 112° |
| 2026-05-05 09:18 | 48.05449 | 13.31892 | 36845 ft | 451 kts | 112° |
| 2026-05-05 09:19 | 48.03402 | 13.40757 | 36845 ft | 451 kts | 112° |
| 2026-05-05 09:19 | 48.01359 | 13.49618 | 36849 ft | 451 kts | 112° |
| 2026-05-05 09:20 | 47.99306 | 13.58470 | 36846 ft | 451 kts | 112° |
| 2026-05-05 09:20 | 47.97264 | 13.67262 | 36853 ft | 451 kts | 112° |
| 2026-05-05 09:21 | 47.95205 | 13.76101 | 36854 ft | 451 kts | 112° |
| 2026-05-05 09:21 | 47.93138 | 13.84922 | 36853 ft | 451 kts | 112° |
| 2026-05-05 09:22 | 47.91057 | 13.93738 | 36853 ft | 451 kts | 112° |
| 2026-05-05 09:22 | 47.88981 | 14.02541 | 36855 ft | 450 kts | 112° |
| 2026-05-05 09:23 | 47.86911 | 14.11276 | 36845 ft | 451 kts | 112° |
| 2026-05-05 09:23 | 47.84810 | 14.20076 | 36842 ft | 451 kts | 112° |
| 2026-05-05 09:24 | 47.82697 | 14.28870 | 36843 ft | 451 kts | 112° |
| 2026-05-05 09:24 | 47.80581 | 14.37658 | 36845 ft | 452 kts | 112° |
| 2026-05-05 09:25 | 47.78476 | 14.46399 | 36851 ft | 452 kts | 112° |
| 2026-05-05 09:25 | 47.76352 | 14.55201 | 36852 ft | 452 kts | 112° |
| 2026-05-05 09:26 | 47.74215 | 14.63985 | 36859 ft | 452 kts | 112° |
| 2026-05-05 09:26 | 47.72068 | 14.72773 | 36865 ft | 452 kts | 112° |
| 2026-05-05 09:27 | 47.69936 | 14.81489 | 36876 ft | 452 kts | 112° |
| 2026-05-05 09:27 | 47.67777 | 14.90264 | 36867 ft | 452 kts | 112° |
| 2026-05-05 09:28 | 47.65620 | 14.99021 | 36878 ft | 452 kts | 112° |
| 2026-05-05 09:28 | 47.63487 | 15.07800 | 36883 ft | 453 kts | 112° |
| 2026-05-05 09:29 | 47.61377 | 15.16526 | 36881 ft | 453 kts | 112° |
| 2026-05-05 09:29 | 47.59244 | 15.25294 | 36887 ft | 452 kts | 112° |
| 2026-05-05 09:30 | 47.57090 | 15.34047 | 36895 ft | 452 kts | 112° |
| 2026-05-05 09:30 | 47.54934 | 15.42783 | 36909 ft | 452 kts | 112° |
| 2026-05-05 09:31 | 47.52791 | 15.51450 | 36906 ft | 451 kts | 112° |
| 2026-05-05 09:31 | 47.50623 | 15.60163 | 36906 ft | 451 kts | 112° |
| 2026-05-05 09:32 | 47.48451 | 15.68866 | 36900 ft | 451 kts | 113° |
| 2026-05-05 09:32 | 47.46276 | 15.77581 | 36891 ft | 452 kts | 112° |
| 2026-05-05 09:33 | 47.44104 | 15.86240 | 36896 ft | 452 kts | 113° |
| 2026-05-05 09:33 | 47.41900 | 15.94956 | 36896 ft | 453 kts | 112° |
| 2026-05-05 09:34 | 47.39692 | 16.03664 | 36899 ft | 453 kts | 112° |
| 2026-05-05 09:34 | 47.37478 | 16.12370 | 36906 ft | 453 kts | 112° |
| 2026-05-05 09:35 | 47.35264 | 16.21053 | 36906 ft | 452 kts | 113° |
| 2026-05-05 09:35 | 47.31945 | 16.34002 | 36913 ft | 452 kts | 113° |
| 2026-05-05 09:36 | 47.29710 | 16.42671 | 36912 ft | 452 kts | 113° |
| 2026-05-05 09:36 | 47.27485 | 16.51335 | 36919 ft | 452 kts | 112° |
| 2026-05-05 09:37 | 47.25348 | 16.59980 | 36919 ft | 452 kts | 111° |
| 2026-05-05 09:37 | 47.23224 | 16.68683 | 36914 ft | 452 kts | 111° |
| 2026-05-05 09:38 | 47.21078 | 16.77378 | 36917 ft | 452 kts | 112° |
| 2026-05-05 09:38 | 47.18914 | 16.86064 | 36923 ft | 452 kts | 112° |
| 2026-05-05 09:39 | 47.16741 | 16.94728 | 36926 ft | 452 kts | 111° |
| 2026-05-05 09:39 | 47.14576 | 17.03342 | 36931 ft | 452 kts | 112° |
| 2026-05-05 09:40 | 47.12390 | 17.12003 | 36938 ft | 453 kts | 112° |
| 2026-05-05 09:40 | 47.10190 | 17.20663 | 36945 ft | 453 kts | 112° |
| 2026-05-05 09:41 | 47.07980 | 17.29320 | 36945 ft | 453 kts | 112° |
| 2026-05-05 09:41 | 47.05772 | 17.37974 | 36957 ft | 453 kts | 112° |
| 2026-05-05 09:42 | 47.03576 | 17.46558 | 36960 ft | 453 kts | 112° |
| 2026-05-05 09:42 | 47.01356 | 17.55195 | 36964 ft | 453 kts | 112° |
| 2026-05-05 09:43 | 46.99130 | 17.63815 | 36969 ft | 452 kts | 112° |
| 2026-05-05 09:43 | 46.96901 | 17.72432 | 36977 ft | 453 kts | 112° |
| 2026-05-05 09:44 | 46.94673 | 17.80986 | 36985 ft | 453 kts | 112° |
| 2026-05-05 09:44 | 46.92424 | 17.89584 | 36984 ft | 452 kts | 112° |
| 2026-05-05 09:45 | 46.90181 | 17.98162 | 37006 ft | 451 kts | 112° |
| 2026-05-05 09:45 | 46.87927 | 18.06722 | 37005 ft | 451 kts | 112° |
| 2026-05-05 09:46 | 46.85669 | 18.15264 | 37003 ft | 450 kts | 112° |
| 2026-05-05 09:46 | 46.83425 | 18.23733 | 36999 ft | 450 kts | 112° |
| 2026-05-05 09:47 | 46.81166 | 18.32247 | 37001 ft | 450 kts | 112° |
| 2026-05-05 09:47 | 46.78898 | 18.40759 | 37007 ft | 450 kts | 112° |
| 2026-05-05 09:48 | 46.76618 | 18.49250 | 37003 ft | 449 kts | 112° |
| 2026-05-05 09:48 | 46.74333 | 18.57738 | 37008 ft | 449 kts | 112° |
| 2026-05-05 09:49 | 46.72043 | 18.66211 | 37015 ft | 449 kts | 112° |
| 2026-05-05 09:49 | 46.69764 | 18.74629 | 37010 ft | 449 kts | 112° |
| 2026-05-05 09:50 | 46.67469 | 18.83098 | 37006 ft | 449 kts | 112° |
| 2026-05-05 09:50 | 46.65162 | 18.91551 | 37019 ft | 449 kts | 112° |
| 2026-05-05 09:51 | 46.62848 | 19.00001 | 37007 ft | 450 kts | 112° |
| 2026-05-05 09:51 | 46.60549 | 19.08396 | 37009 ft | 450 kts | 112° |
| 2026-05-05 09:52 | 46.58222 | 19.16840 | 37011 ft | 450 kts | 112° |
| 2026-05-05 09:52 | 46.55893 | 19.25283 | 37021 ft | 450 kts | 112° |
| 2026-05-05 09:53 | 46.53552 | 19.33720 | 37012 ft | 450 kts | 112° |
| 2026-05-05 09:53 | 46.51215 | 19.42092 | 37019 ft | 450 kts | 112° |
| 2026-05-05 09:54 | 46.48862 | 19.50506 | 37021 ft | 450 kts | 112° |
| 2026-05-05 09:54 | 46.46499 | 19.58916 | 37033 ft | 450 kts | 112° |
| 2026-05-05 09:55 | 46.44134 | 19.67320 | 37034 ft | 450 kts | 112° |
| 2026-05-05 09:55 | 46.41767 | 19.75711 | 37040 ft | 450 kts | 112° |
| 2026-05-05 09:56 | 46.39412 | 19.84030 | 37040 ft | 449 kts | 111° |
| 2026-05-05 09:56 | 46.37157 | 19.92470 | 37045 ft | 449 kts | 110° |
| 2026-05-05 09:57 | 46.34983 | 20.00940 | 37038 ft | 449 kts | 110° |
| 2026-05-05 09:57 | 46.32792 | 20.09397 | 37045 ft | 449 kts | 110° |
| 2026-05-05 09:58 | 46.30579 | 20.17776 | 37043 ft | 449 kts | 110° |
| 2026-05-05 09:58 | 46.28334 | 20.26193 | 37046 ft | 449 kts | 111° |
| 2026-05-05 09:59 | 46.26093 | 20.34610 | 37042 ft | 449 kts | 110° |
| 2026-05-05 09:59 | 46.23845 | 20.43021 | 37048 ft | 449 kts | 110° |
| 2026-05-05 10:00 | 46.21604 | 20.51365 | 37044 ft | 449 kts | 110° |
| 2026-05-05 10:00 | 46.19343 | 20.59761 | 37043 ft | 449 kts | 110° |
| 2026-05-05 10:01 | 46.17075 | 20.68151 | 37043 ft | 449 kts | 110° |
| 2026-05-05 10:01 | 46.14724 | 20.76487 | 37041 ft | 449 kts | 112° |
| 2026-05-05 10:02 | 46.12210 | 20.84663 | 37042 ft | 449 kts | 113° |
| 2026-05-05 10:02 | 46.09644 | 20.92869 | 37054 ft | 449 kts | 113° |
| 2026-05-05 10:03 | 46.07106 | 21.01091 | 37054 ft | 449 kts | 113° |
| 2026-05-05 10:03 | 46.04579 | 21.09318 | 37059 ft | 449 kts | 112° |
| 2026-05-05 10:04 | 46.02069 | 21.17496 | 37057 ft | 450 kts | 112° |
| 2026-05-05 10:04 | 45.99534 | 21.25723 | 37047 ft | 450 kts | 113° |
| 2026-05-05 10:05 | 45.96980 | 21.33938 | 37054 ft | 450 kts | 113° |
| 2026-05-05 10:05 | 45.94425 | 21.42151 | 37064 ft | 450 kts | 112° |
| 2026-05-05 10:06 | 45.91863 | 21.50367 | 37059 ft | 451 kts | 112° |
| 2026-05-05 10:06 | 45.89312 | 21.58521 | 37042 ft | 451 kts | 113° |
| 2026-05-05 10:07 | 45.86733 | 21.66728 | 37043 ft | 451 kts | 113° |
| 2026-05-05 10:07 | 45.84144 | 21.74925 | 37043 ft | 451 kts | 113° |
| 2026-05-05 10:08 | 45.81547 | 21.83113 | 37055 ft | 451 kts | 113° |
| 2026-05-05 10:08 | 45.78969 | 21.91237 | 37052 ft | 451 kts | 113° |
| 2026-05-05 10:09 | 45.76369 | 21.99408 | 37049 ft | 451 kts | 113° |
| 2026-05-05 10:09 | 45.73762 | 22.07576 | 37048 ft | 451 kts | 113° |
| 2026-05-05 10:10 | 45.71150 | 22.15724 | 37056 ft | 450 kts | 113° |
| 2026-05-05 10:10 | 45.68555 | 22.23796 | 37055 ft | 449 kts | 113° |
| 2026-05-05 10:11 | 45.65941 | 22.31911 | 37056 ft | 449 kts | 113° |
| 2026-05-05 10:11 | 45.63320 | 22.40009 | 37054 ft | 449 kts | 113° |
| 2026-05-05 10:12 | 45.60698 | 22.48088 | 37061 ft | 448 kts | 113° |
| 2026-05-05 10:12 | 45.58069 | 22.56157 | 37058 ft | 448 kts | 113° |
| 2026-05-05 10:13 | 45.55460 | 22.64155 | 37060 ft | 447 kts | 113° |
| 2026-05-05 10:13 | 45.52841 | 22.72196 | 37063 ft | 447 kts | 113° |
| 2026-05-05 10:14 | 45.50200 | 22.80225 | 37068 ft | 447 kts | 113° |
| 2026-05-05 10:14 | 45.47559 | 22.88237 | 37065 ft | 447 kts | 113° |
| 2026-05-05 10:15 | 45.44921 | 22.96194 | 37061 ft | 447 kts | 113° |
| 2026-05-05 10:15 | 45.42383 | 23.04264 | 37055 ft | 446 kts | 111° |
| 2026-05-05 10:16 | 45.39975 | 23.12408 | 37061 ft | 447 kts | 110° |
| 2026-05-05 10:16 | 45.37545 | 23.20539 | 37059 ft | 446 kts | 111° |
| 2026-05-05 10:17 | 45.35062 | 23.28631 | 37060 ft | 447 kts | 111° |
| 2026-05-05 10:17 | 45.32576 | 23.36661 | 37062 ft | 447 kts | 111° |
| 2026-05-05 10:18 | 45.30083 | 23.44746 | 37055 ft | 447 kts | 111° |
| 2026-05-05 10:18 | 45.27589 | 23.52828 | 37053 ft | 447 kts | 111° |
| 2026-05-05 10:19 | 45.25087 | 23.60911 | 37050 ft | 447 kts | 111° |
| 2026-05-05 10:19 | 45.23849 | 23.64899 | 36903 ft | 449 kts | 111° |
| 2026-05-05 10:19 | 45.22590 | 23.68937 | 36639 ft | 448 kts | 111° |
| 2026-05-05 10:20 | 45.21329 | 23.72973 | 36375 ft | 448 kts | 111° |
| 2026-05-05 10:20 | 45.20066 | 23.77008 | 36147 ft | 448 kts | 111° |
| 2026-05-05 10:20 | 45.18802 | 23.81039 | 35888 ft | 447 kts | 111° |
| 2026-05-05 10:20 | 45.17541 | 23.85050 | 35635 ft | 445 kts | 111° |
| 2026-05-05 10:21 | 45.16281 | 23.89054 | 35379 ft | 443 kts | 111° |
| 2026-05-05 10:21 | 45.15027 | 23.93037 | 35127 ft | 442 kts | 111° |
| 2026-05-05 10:21 | 45.13780 | 23.97006 | 34883 ft | 440 kts | 111° |
| 2026-05-05 10:21 | 45.12558 | 24.00892 | 34651 ft | 438 kts | 111° |
| 2026-05-05 10:22 | 45.11319 | 24.04823 | 34400 ft | 436 kts | 111° |
| 2026-05-05 10:22 | 45.10084 | 24.08731 | 34177 ft | 434 kts | 111° |
| 2026-05-05 10:22 | 45.08852 | 24.12623 | 33924 ft | 432 kts | 110° |
| 2026-05-05 10:22 | 45.07630 | 24.16489 | 33646 ft | 430 kts | 110° |
| 2026-05-05 10:23 | 45.06408 | 24.20340 | 33370 ft | 428 kts | 110° |
| 2026-05-05 10:23 | 45.05192 | 24.24166 | 33094 ft | 425 kts | 110° |
| 2026-05-05 10:23 | 45.03976 | 24.27972 | 32831 ft | 423 kts | 111° |
| 2026-05-05 10:23 | 45.02780 | 24.31705 | 32567 ft | 421 kts | 111° |
| 2026-05-05 10:24 | 45.01560 | 24.35515 | 32304 ft | 419 kts | 110° |
| 2026-05-05 10:24 | 45.00377 | 24.39211 | 32048 ft | 417 kts | 111° |
| 2026-05-05 10:24 | 44.99184 | 24.42935 | 31807 ft | 415 kts | 111° |
| 2026-05-05 10:24 | 44.97998 | 24.46632 | 31552 ft | 412 kts | 111° |
| 2026-05-05 10:25 | 44.96818 | 24.50311 | 31298 ft | 410 kts | 111° |
| 2026-05-05 10:25 | 44.95642 | 24.53965 | 31048 ft | 408 kts | 111° |
| 2026-05-05 10:25 | 44.94469 | 24.57597 | 30798 ft | 405 kts | 111° |
| 2026-05-05 10:25 | 44.93307 | 24.61194 | 30399 ft | 401 kts | 111° |
| 2026-05-05 10:26 | 44.92168 | 24.64717 | 29910 ft | 399 kts | 111° |
| 2026-05-05 10:26 | 44.91020 | 24.68264 | 29447 ft | 395 kts | 111° |
| 2026-05-05 10:26 | 44.89884 | 24.71769 | 29005 ft | 391 kts | 111° |
| 2026-05-05 10:26 | 44.88758 | 24.75240 | 28588 ft | 387 kts | 111° |
| 2026-05-05 10:27 | 44.87641 | 24.78680 | 28146 ft | 385 kts | 111° |
| 2026-05-05 10:27 | 44.86531 | 24.82094 | 27738 ft | 381 kts | 111° |
| 2026-05-05 10:27 | 44.85431 | 24.85472 | 27300 ft | 378 kts | 111° |
| 2026-05-05 10:27 | 44.84341 | 24.88819 | 26876 ft | 375 kts | 111° |
| 2026-05-05 10:28 | 44.83271 | 24.92099 | 26445 ft | 372 kts | 111° |
| 2026-05-05 10:28 | 44.82195 | 24.95396 | 26014 ft | 369 kts | 111° |
| 2026-05-05 10:28 | 44.81123 | 24.98668 | 25569 ft | 367 kts | 111° |
| 2026-05-05 10:28 | 44.80054 | 25.01927 | 25119 ft | 365 kts | 111° |
| 2026-05-05 10:29 | 44.78991 | 25.05166 | 24661 ft | 364 kts | 111° |
| 2026-05-05 10:29 | 44.77930 | 25.08393 | 24208 ft | 363 kts | 111° |
| 2026-05-05 10:29 | 44.76870 | 25.11610 | 23747 ft | 362 kts | 111° |
| 2026-05-05 10:29 | 44.75827 | 25.14773 | 23250 ft | 361 kts | 111° |
| 2026-05-05 10:30 | 44.74599 | 25.17847 | 22839 ft | 359 kts | 119° |
| 2026-05-05 10:30 | 44.73246 | 25.20784 | 22354 ft | 357 kts | 119° |
| 2026-05-05 10:30 | 44.71903 | 25.23704 | 21931 ft | 354 kts | 119° |
| 2026-05-05 10:30 | 44.70570 | 25.26610 | 21478 ft | 352 kts | 119° |
| 2026-05-05 10:31 | 44.69243 | 25.29491 | 21080 ft | 350 kts | 119° |
| 2026-05-05 10:31 | 44.67928 | 25.32346 | 20648 ft | 348 kts | 119° |
| 2026-05-05 10:31 | 44.66623 | 25.35182 | 20259 ft | 345 kts | 119° |
| 2026-05-05 10:31 | 44.65322 | 25.38004 | 19885 ft | 343 kts | 119° |
| 2026-05-05 10:32 | 44.64043 | 25.40773 | 19514 ft | 340 kts | 119° |
| 2026-05-05 10:32 | 44.62752 | 25.43561 | 19074 ft | 340 kts | 118° |
| 2026-05-05 10:32 | 44.61474 | 25.46317 | 18782 ft | 334 kts | 118° |
| 2026-05-05 10:32 | 44.60210 | 25.49044 | 18211 ft | 331 kts | 118° |
| 2026-05-05 10:33 | 44.59026 | 25.51563 | 18744 ft | 287 kts | 118° |
| 2026-05-05 10:33 | 44.57895 | 25.53976 | 18584 ft | 306 kts | 118° |
| 2026-05-05 10:33 | 44.56716 | 25.56538 | 17984 ft | 314 kts | 118° |
| 2026-05-05 10:33 | 44.55548 | 25.59062 | 17840 ft | 305 kts | 118° |
| 2026-05-05 10:34 | 44.54414 | 25.61501 | 17564 ft | 303 kts | 118° |
| 2026-05-05 10:34 | 44.53265 | 25.63976 | 17169 ft | 303 kts | 118° |
| 2026-05-05 10:34 | 44.52114 | 25.66453 | 16796 ft | 303 kts | 118° |
| 2026-05-05 10:34 | 44.51063 | 25.69001 | 16411 ft | 300 kts | 108° |
| 2026-05-05 10:35 | 44.50432 | 25.71753 | 16028 ft | 295 kts | 96° |
| 2026-05-05 10:35 | 44.50251 | 25.74584 | 15651 ft | 290 kts | 84° |
| 2026-05-05 10:35 | 44.50371 | 25.77402 | 15278 ft | 290 kts | 82° |
| 2026-05-05 10:35 | 44.50493 | 25.80221 | 14910 ft | 290 kts | 82° |
| 2026-05-05 10:36 | 44.50609 | 25.83011 | 14551 ft | 291 kts | 83° |
| 2026-05-05 10:36 | 44.50723 | 25.85841 | 14192 ft | 292 kts | 83° |
| 2026-05-05 10:36 | 44.50836 | 25.88679 | 13830 ft | 292 kts | 83° |
| 2026-05-05 10:36 | 44.50950 | 25.91518 | 13431 ft | 292 kts | 83° |
| 2026-05-05 10:37 | 44.51063 | 25.94358 | 13032 ft | 292 kts | 83° |
| 2026-05-05 10:37 | 44.51176 | 25.97191 | 12642 ft | 291 kts | 83° |
| 2026-05-05 10:37 | 44.51288 | 26.00022 | 12249 ft | 290 kts | 83° |
| 2026-05-05 10:37 | 44.51401 | 26.02840 | 11868 ft | 289 kts | 83° |
| 2026-05-05 10:38 | 44.51514 | 26.05653 | 11501 ft | 288 kts | 83° |
| 2026-05-05 10:38 | 44.51622 | 26.08405 | 11127 ft | 284 kts | 83° |
| 2026-05-05 10:38 | 44.51724 | 26.11128 | 10766 ft | 276 kts | 82° |
| 2026-05-05 10:38 | 44.51824 | 26.13785 | 10405 ft | 272 kts | 82° |
| 2026-05-05 10:39 | 44.51925 | 26.16427 | 10042 ft | 271 kts | 82° |
| 2026-05-05 10:39 | 44.52026 | 26.19062 | 9640 ft | 270 kts | 82° |
| 2026-05-05 10:39 | 44.52125 | 26.21687 | 9254 ft | 269 kts | 82° |
| 2026-05-05 10:39 | 44.52225 | 26.24295 | 8863 ft | 268 kts | 82° |
| 2026-05-05 10:40 | 44.52325 | 26.26897 | 8465 ft | 267 kts | 82° |
| 2026-05-05 10:40 | 44.52420 | 26.29451 | 8086 ft | 265 kts | 83° |
| 2026-05-05 10:40 | 44.52514 | 26.32022 | 7712 ft | 264 kts | 83° |
| 2026-05-05 10:40 | 44.52609 | 26.34579 | 7339 ft | 262 kts | 83° |
| 2026-05-05 10:41 | 44.52703 | 26.37111 | 6992 ft | 259 kts | 83° |
| 2026-05-05 10:41 | 44.52795 | 26.39604 | 6652 ft | 253 kts | 83° |
| 2026-05-05 10:41 | 44.52878 | 26.42032 | 6305 ft | 246 kts | 83° |
| 2026-05-05 10:41 | 44.52957 | 26.44394 | 5947 ft | 240 kts | 83° |
| 2026-05-05 10:42 | 44.53124 | 26.48966 | 5264 ft | 233 kts | 83° |
| 2026-05-05 10:42 | 44.53368 | 26.51186 | 4906 ft | 228 kts | 62° |
| 2026-05-05 10:42 | 44.54417 | 26.52702 | 4558 ft | 223 kts | 23° |
| 2026-05-05 10:43 | 44.55929 | 26.52845 | 4201 ft | 225 kts | 343° |
| 2026-05-05 10:43 | 44.57140 | 26.51505 | 3885 ft | 227 kts | 300° |
| 2026-05-05 10:43 | 44.57635 | 26.49437 | 3746 ft | 223 kts | 286° |
| 2026-05-05 10:43 | 44.57980 | 26.47337 | 3591 ft | 219 kts | 284° |
| 2026-05-05 10:44 | 44.58295 | 26.45298 | 3469 ft | 209 kts | 284° |
| 2026-05-05 10:44 | 44.58604 | 26.43323 | 3332 ft | 206 kts | 284° |
| 2026-05-05 10:44 | 44.58861 | 26.41353 | 3169 ft | 206 kts | 274° |
| 2026-05-05 10:44 | 44.58811 | 26.39381 | 3007 ft | 202 kts | 265° |
| 2026-05-05 10:45 | 44.58677 | 26.37446 | 2860 ft | 197 kts | 264° |
| 2026-05-05 10:45 | 44.58540 | 26.35574 | 2715 ft | 188 kts | 264° |
| 2026-05-05 10:45 | 44.58409 | 26.33789 | 2571 ft | 182 kts | 263° |
| 2026-05-05 10:45 | 44.58280 | 26.32036 | 2501 ft | 180 kts | 263° |
| 2026-05-05 10:46 | 44.58152 | 26.30287 | 2479 ft | 181 kts | 263° |
| 2026-05-05 10:46 | 44.58023 | 26.28537 | 2354 ft | 180 kts | 263° |
| 2026-05-05 10:46 | 44.57895 | 26.26794 | 2141 ft | 179 kts | 262° |
| 2026-05-05 10:46 | 44.57766 | 26.25049 | 1942 ft | 178 kts | 262° |
| 2026-05-05 10:47 | 44.57644 | 26.23404 | 1751 ft | 166 kts | 263° |
| 2026-05-05 10:47 | 44.57528 | 26.21835 | 1553 ft | 157 kts | 263° |
| 2026-05-05 10:47 | 44.57417 | 26.20347 | 1363 ft | 152 kts | 262° |
| 2026-05-05 10:47 | 44.57307 | 26.18875 | 1193 ft | 151 kts | 262° |
| 2026-05-05 10:48 | 44.57195 | 26.17416 | 993 ft | 149 kts | 263° |
| 2026-05-05 10:48 | 44.57077 | 26.15971 | 833 ft | 149 kts | 263° |
| 2026-05-05 10:48 | 44.56983 | 26.14519 | 683 ft | 149 kts | 262° |
| 2026-05-05 10:48 | 44.56866 | 26.13079 | 525 ft | 149 kts | 265° |
| 2026-05-05 10:49 | 44.56761 | 26.11640 | 348 ft | 147 kts | 265° |
| 2026-05-05 10:49 | 44.56668 | 26.10363 | 323 ft | 113 kts | 264° |
| 2026-05-05 10:49 | 44.56604 | 26.09507 | 323 ft | 64 kts | 264° |
| 2026-05-05 10:49 | 44.56567 | 26.09015 | 323 ft | 35 kts | 263° |
| 2026-05-05 10:50 | 44.56558 | 26.08729 | 322 ft | 27 kts | 286° |
| 2026-05-05 10:50 | 44.56661 | 26.08591 | 322 ft | 16 kts | 342° |
| 2026-05-05 10:50 | 44.56725 | 26.08579 | 322 ft | 0 kts | 354° |
| 2026-05-05 10:51 | 44.56726 | 26.08578 | 322 ft | 2 kts | 354° |
| 2026-05-05 10:51 | 44.56781 | 26.08570 | 321 ft | 12 kts | 354° |
| 2026-05-05 10:51 | 44.56865 | 26.08558 | 322 ft | 12 kts | 354° |
| 2026-05-05 10:51 | 44.56953 | 26.08545 | 321 ft | 13 kts | 354° |
| 2026-05-05 10:52 | 44.57045 | 26.08532 | 323 ft | 14 kts | 354° |
| 2026-05-05 10:52 | 44.57144 | 26.08518 | 323 ft | 13 kts | 354° |
| 2026-05-05 10:52 | 44.57217 | 26.08503 | 323 ft | 8 kts | 335° |
| 2026-05-05 10:52 | 44.57229 | 26.08433 | 323 ft | 11 kts | 263° |
| 2026-05-05 10:53 | 44.57221 | 26.08332 | 321 ft | 10 kts | 264° |
| 2026-05-05 10:53 | 44.57214 | 26.08244 | 323 ft | 8 kts | 264° |
| 2026-05-05 10:53 | 44.57209 | 26.08168 | 323 ft | 7 kts | 264° |
| 2026-05-05 10:53 | 44.57204 | 26.08103 | 323 ft | 6 kts | 264° |
| 2026-05-05 10:54 | 44.57199 | 26.08043 | 321 ft | 8 kts | 264° |
| 2026-05-05 10:54 | 44.57172 | 26.08001 | 323 ft | 6 kts | 189° |
| 2026-05-05 10:54 | 44.57136 | 26.08005 | 323 ft | 2 kts | 173° |
| 2026-05-05 10:54 | 44.57131 | 26.08006 | 321 ft | 0 kts | 173° |